createdAt,value
2019-05-23T00:01:13.530Z,41.66
2019-05-23T00:03:48.935Z,41.66
2019-05-23T00:06:21.227Z,41.78
2019-05-23T00:08:52.276Z,41.86
2019-05-23T00:11:41.272Z,41.74
2019-05-23T00:14:21.418Z,41.68
2019-05-23T00:16:51.407Z,41.91
2019-05-23T00:19:21.545Z,41.96
2019-05-23T00:21:52.329Z,41.88
2019-05-23T00:24:23.375Z,41.97
2019-05-23T00:26:52.584Z,42.07
2019-05-23T00:29:22.215Z,42.17
2019-05-23T00:31:59.350Z,42.04
2019-05-23T00:34:30.594Z,42.06
2019-05-23T00:37:01.545Z,42.07
2019-05-23T00:39:31.075Z,42.11
2019-05-23T00:42:00.456Z,41.83
2019-05-23T00:44:29.887Z,41.82
2019-05-23T00:46:59.380Z,41.88
2019-05-23T00:49:28.526Z,41.82
2019-05-23T00:51:58.353Z,42.08
2019-05-23T00:56:27.998Z,41.95
2019-05-23T00:58:56.802Z,41.87
2019-05-23T01:01:26.358Z,42.16
2019-05-23T01:03:55.593Z,42.12
2019-05-23T01:06:24.172Z,42.15
2019-05-23T01:08:52.923Z,42.20
2019-05-23T01:11:23.562Z,42.19
2019-05-23T01:13:53.591Z,42.24
2019-05-23T01:16:24.628Z,42.15
2019-05-23T01:18:53.738Z,42.07
2019-05-23T01:21:43.848Z,42.02
2019-05-23T01:24:29.599Z,42.01
2019-05-23T01:26:59.374Z,42.01
2019-05-23T01:29:37.406Z,42.34
2019-05-23T01:32:04.377Z,42.35
2019-05-23T01:34:34.813Z,42.28
2019-05-23T01:37:04.554Z,42.26
2019-05-23T01:39:35.014Z,42.23
2019-05-23T01:42:04.778Z,42.28
2019-05-23T01:44:34.858Z,42.07
2019-05-23T01:47:08.208Z,42.22
2019-05-23T01:50:31.134Z,42.38
2019-05-23T01:53:00.764Z,42.26
2019-05-23T01:55:30.755Z,42.36
2019-05-23T01:57:59.011Z,42.16
2019-05-23T02:00:29.468Z,42.28
2019-05-23T02:02:58.737Z,42.41
2019-05-23T02:05:27.911Z,42.21
2019-05-23T02:07:57.213Z,42.11
2019-05-23T02:10:25.701Z,42.16
2019-05-23T02:12:53.774Z,42.15
2019-05-23T02:15:22.882Z,42.26
2019-05-23T02:17:54.038Z,42.13
2019-05-23T02:20:23.985Z,42.01
2019-05-23T02:22:53.946Z,42.35
2019-05-23T02:25:24.603Z,42.29
2019-05-23T02:27:54.493Z,42.22
2019-05-23T02:30:34.045Z,42.26
2019-05-23T02:32:55.365Z,42.42
2019-05-23T02:35:24.490Z,42.39
2019-05-23T02:38:29.070Z,42.20
2019-05-23T02:41:18.917Z,42.44
2019-05-23T02:43:53.649Z,42.15
2019-05-23T02:46:30.375Z,42.35
2019-05-23T02:49:03.023Z,42.33
2019-05-23T02:51:36.210Z,42.35
2019-05-23T02:54:06.713Z,42.55
2019-05-23T02:56:38.117Z,42.24
2019-05-23T02:59:32.852Z,42.22
2019-05-23T03:03:01.743Z,42.38
2019-05-23T03:05:34.273Z,42.39
2019-05-23T03:08:04.391Z,42.40
2019-05-23T03:11:04.115Z,42.46
2019-05-23T03:13:33.269Z,42.37
2019-05-23T03:16:04.824Z,42.14
2019-05-23T03:18:41.466Z,42.25
2019-05-23T03:21:11.680Z,42.39
2019-05-23T03:23:42.624Z,42.42
2019-05-23T03:26:57.856Z,42.36
2019-05-23T03:29:28.010Z,42.40
2019-05-23T03:32:10.032Z,42.25
2019-05-23T03:34:40.774Z,42.09
2019-05-23T03:37:09.919Z,41.96
2019-05-23T03:39:39.419Z,41.96
2019-05-23T03:42:10.072Z,42.26
2019-05-23T03:44:39.753Z,42.18
2019-05-23T03:47:13.813Z,42.22
2019-05-23T03:49:43.534Z,42.21
2019-05-23T03:52:14.457Z,42.50
2019-05-23T03:54:46.397Z,42.17
2019-05-23T03:57:16.598Z,42.17
2019-05-23T03:59:46.324Z,42.27
2019-05-23T04:02:51.790Z,41.75
2019-05-23T04:05:21.446Z,42.29
2019-05-23T04:07:51.124Z,42.28
2019-05-23T04:10:21.645Z,42.01
2019-05-23T04:12:54.316Z,42.13
2019-05-23T04:15:25.119Z,42.13
2019-05-23T04:17:55.730Z,42.17
2019-05-23T04:20:27.321Z,42.14
2019-05-23T04:22:58.074Z,41.83
2019-05-23T04:25:29.470Z,41.83
2019-05-23T04:28:01.418Z,41.96
2019-05-23T04:30:33.537Z,42.08
2019-05-23T04:33:04.857Z,41.81
2019-05-23T04:36:34.252Z,41.73
2019-05-23T04:39:06.593Z,41.86
2019-05-23T04:41:37.808Z,41.85
2019-05-23T04:44:09.301Z,41.61
2019-05-23T04:46:41.186Z,41.41
2019-05-23T04:49:13.372Z,41.41
2019-05-23T04:51:44.958Z,41.04
2019-05-23T04:54:15.440Z,41.13
2019-05-23T04:56:47.021Z,41.14
2019-05-23T04:59:19.210Z,41.15
2019-05-23T05:02:25.647Z,41.12
2019-05-23T05:04:48.770Z,41.02
2019-05-23T05:07:20.382Z,40.87
2019-05-23T05:09:52.207Z,40.77
2019-05-23T05:12:24.554Z,40.77
2019-05-23T05:14:57.091Z,40.59
2019-05-23T05:17:28.975Z,40.64
2019-05-23T05:20:00.130Z,40.64
2019-05-23T05:22:31.299Z,40.59
2019-05-23T05:25:01.966Z,40.64
2019-05-23T05:27:34.279Z,40.48
2019-05-23T05:30:06.072Z,40.71
2019-05-23T05:32:44.855Z,40.47
2019-05-23T05:37:12.035Z,40.54
2019-05-23T05:39:44.047Z,41.08
2019-05-23T05:42:16.767Z,41.08
2019-05-23T05:44:47.629Z,41.80
2019-05-23T05:47:19.215Z,41.30
2019-05-23T05:49:50.599Z,41.90
2019-05-23T05:52:22.107Z,42.17
2019-05-23T05:54:53.438Z,41.71
2019-05-23T05:57:24.572Z,41.38
2019-05-23T05:59:55.736Z,41.38
2019-05-23T06:02:26.697Z,41.27
2019-05-23T06:04:57.369Z,40.98
2019-05-23T06:07:35.230Z,41.34
2019-05-23T06:10:10.946Z,41.13
2019-05-23T06:12:42.103Z,41.06
2019-05-23T06:15:12.888Z,40.66
2019-05-23T06:17:45.064Z,40.74
2019-05-23T06:20:17.017Z,40.55
2019-05-23T06:22:47.833Z,39.92
2019-05-23T06:25:18.097Z,40.13
2019-05-23T06:27:48.734Z,40.13
2019-05-23T06:30:20.819Z,40.44
2019-05-23T06:32:51.171Z,40.44
2019-05-23T06:35:21.771Z,40.15
2019-05-23T06:40:37.169Z,39.11
2019-05-23T06:43:07.953Z,39.11
2019-05-23T06:45:41.498Z,38.56
2019-05-23T06:48:13.223Z,38.19
2019-05-23T06:50:44.446Z,38.50
2019-05-23T06:53:15.568Z,38.50
2019-05-23T06:55:46.158Z,39.06
2019-05-23T06:58:15.594Z,39.29
2019-05-23T07:00:46.844Z,39.38
2019-05-23T07:03:17.369Z,39.88
2019-05-23T07:05:49.693Z,39.88
2019-05-23T07:08:21.001Z,40.34
2019-05-23T07:10:51.103Z,39.73
2019-05-23T07:13:21.263Z,40.20
2019-05-23T07:15:52.050Z,39.61
2019-05-23T07:18:22.957Z,39.62
2019-05-23T07:20:53.886Z,39.29
2019-05-23T07:24:57.445Z,39.58
2019-05-23T07:27:18.481Z,39.68
2019-05-23T07:29:51.427Z,39.68
2019-05-23T07:32:22.719Z,39.86
2019-05-23T07:34:54.385Z,39.76
2019-05-23T07:37:25.222Z,39.79
2019-05-23T07:39:56.676Z,39.67
2019-05-23T07:42:28.542Z,40.01
2019-05-23T07:44:59.908Z,39.96
2019-05-23T07:47:30.431Z,39.64
2019-05-23T07:50:01.881Z,39.64
2019-05-23T07:52:33.213Z,39.49
2019-05-23T07:55:09.817Z,39.40
2019-05-23T07:57:41.353Z,39.40
2019-05-23T08:00:19.286Z,39.47
2019-05-23T08:02:51.881Z,39.33
2019-05-23T08:05:23.329Z,39.33
2019-05-23T08:07:54.581Z,39.45
2019-05-23T08:10:33.869Z,39.53
2019-05-23T08:13:00.459Z,39.53
2019-05-23T08:15:31.882Z,39.52
2019-05-23T08:18:03.059Z,39.77
2019-05-23T08:20:34.736Z,39.41
2019-05-23T08:23:05.559Z,39.28
2019-05-23T08:25:36.363Z,39.42
2019-05-23T08:28:07.870Z,39.42
2019-05-23T08:30:37.706Z,39.24
2019-05-23T08:33:07.833Z,38.98
2019-05-23T08:35:38.288Z,39.51
2019-05-23T08:38:09.876Z,39.51
2019-05-23T08:40:41.556Z,39.42
2019-05-23T08:43:13.298Z,39.33
2019-05-23T08:45:44.152Z,39.25
2019-05-23T08:48:16.019Z,39.19
2019-05-23T08:50:51.106Z,39.17
2019-05-23T08:53:19.342Z,40.16
2019-05-23T08:55:50.992Z,40.53
2019-05-23T08:58:22.036Z,41.35
2019-05-23T09:00:54.772Z,41.11
2019-05-23T09:03:26.674Z,39.23
2019-05-23T09:05:59.622Z,39.23
2019-05-23T09:08:32.590Z,39.45
2019-05-23T09:11:04.950Z,39.44
2019-05-23T09:13:36.107Z,39.44
2019-05-23T09:16:07.472Z,39.23
2019-05-23T09:18:38.588Z,39.23
2019-05-23T09:21:10.684Z,38.95
2019-05-23T09:23:41.873Z,38.95
2019-05-23T09:26:14.362Z,39.03
2019-05-23T09:28:45.832Z,38.83
2019-05-23T09:31:17.607Z,38.83
2019-05-23T09:33:49.019Z,38.79
2019-05-23T09:36:19.971Z,38.79
2019-05-23T09:38:50.806Z,38.81
2019-05-23T09:41:22.762Z,38.81
2019-05-23T09:43:55.634Z,38.81
2019-05-23T09:46:26.621Z,38.64
2019-05-23T09:48:57.746Z,38.79
2019-05-23T09:51:28.993Z,38.79
2019-05-23T09:53:58.141Z,38.74
2019-05-23T09:56:28.953Z,38.74
2019-05-23T09:59:00.813Z,38.70
2019-05-23T10:01:32.077Z,38.55
2019-05-23T10:04:03.735Z,38.55
2019-05-23T10:06:34.334Z,38.57
2019-05-23T10:09:07.963Z,38.21
2019-05-23T10:11:38.778Z,38.46
2019-05-23T10:14:14.661Z,38.51
2019-05-23T10:16:45.862Z,38.58
2019-05-23T10:19:17.127Z,38.39
2019-05-23T10:21:48.762Z,38.44
2019-05-23T10:24:20.863Z,38.30
2019-05-23T10:26:51.841Z,38.38
2019-05-23T10:29:22.300Z,38.38
2019-05-23T10:31:53.566Z,38.10
2019-05-23T10:34:24.347Z,37.69
2019-05-23T10:36:53.496Z,37.69
2019-05-23T10:39:21.977Z,38.16
2019-05-23T10:41:51.188Z,38.29
2019-05-23T10:44:20.442Z,37.88
2019-05-23T10:46:49.613Z,38.54
2019-05-23T10:49:19.267Z,38.53
2019-05-23T10:51:51.878Z,38.35
2019-05-23T10:54:23.399Z,38.33
2019-05-23T11:00:13.851Z,37.93
2019-05-23T11:02:45.565Z,37.13
2019-05-23T11:05:16.164Z,37.13
2019-05-23T11:07:49.540Z,37.81
2019-05-23T11:10:20.530Z,38.07
2019-05-23T11:12:51.537Z,38.07
2019-05-23T11:15:21.639Z,35.89
2019-05-23T11:17:54.170Z,34.20
2019-05-23T11:20:25.840Z,32.07
2019-05-23T11:22:55.670Z,32.44
2019-05-23T11:25:25.648Z,32.46
2019-05-23T11:27:53.855Z,29.52
2019-05-23T11:30:42.998Z,29.27
2019-05-23T11:33:14.638Z,29.22
2019-05-23T11:35:44.880Z,29.32
2019-05-23T11:38:13.798Z,30.62
2019-05-23T11:40:44.533Z,30.53
2019-05-23T11:43:16.075Z,30.15
2019-05-23T11:45:52.435Z,30.27
2019-05-23T11:48:23.584Z,30.27
2019-05-23T11:50:54.440Z,29.70
2019-05-23T11:53:25.418Z,29.70
2019-05-23T11:55:56.251Z,28.99
2019-05-23T11:58:26.297Z,28.92
2019-05-23T12:01:48.992Z,29.29
2019-05-23T12:04:20.645Z,29.29
2019-05-23T12:06:56.438Z,29.34
2019-05-23T12:09:27.814Z,28.99
2019-05-23T12:11:59.872Z,30.08
2019-05-23T12:14:31.723Z,30.08
2019-05-23T12:17:02.902Z,29.95
2019-05-23T12:19:35.003Z,29.55
2019-05-23T12:22:05.335Z,29.44
2019-05-23T12:25:56.013Z,29.32
2019-05-23T12:28:29.026Z,30.20
2019-05-23T12:30:59.282Z,29.75
2019-05-23T12:34:19.097Z,29.61
2019-05-23T12:36:49.763Z,31.49
2019-05-23T12:39:21.064Z,31.49
2019-05-23T12:41:52.400Z,30.82
2019-05-23T12:44:23.602Z,31.68
2019-05-23T12:46:55.754Z,30.56
2019-05-23T12:49:32.049Z,29.36
2019-05-23T12:54:36.043Z,29.48
2019-05-23T12:57:07.204Z,28.64
2019-05-23T12:59:39.629Z,28.64
2019-05-23T13:02:14.194Z,28.78
2019-05-23T13:04:45.445Z,29.54
2019-05-23T13:07:16.527Z,29.54
2019-05-23T13:09:47.635Z,29.30
2019-05-23T13:12:18.283Z,29.50
2019-05-23T13:14:53.026Z,29.50
2019-05-23T13:17:23.080Z,29.70
2019-05-23T13:19:53.749Z,29.70
2019-05-23T13:22:23.627Z,29.44
2019-05-23T13:24:56.108Z,29.44
2019-05-23T13:27:26.483Z,30.08
2019-05-23T13:29:58.777Z,30.08
2019-05-23T13:32:30.834Z,30.62
2019-05-23T13:36:23.395Z,30.50
2019-05-23T13:38:55.152Z,30.05
2019-05-23T13:41:29.958Z,29.29
2019-05-23T13:44:01.878Z,28.67
2019-05-23T13:46:32.126Z,28.67
2019-05-23T13:49:03.215Z,28.76
2019-05-23T13:51:34.850Z,29.01
2019-05-23T13:54:05.921Z,29.01
2019-05-23T13:56:40.139Z,29.26
2019-05-23T14:01:09.570Z,28.99
2019-05-23T14:03:40.667Z,28.86
2019-05-23T14:06:12.202Z,29.30
2019-05-23T14:08:46.778Z,29.30
2019-05-23T14:11:18.411Z,28.74
2019-05-23T14:13:58.707Z,28.92
2019-05-23T14:16:22.911Z,28.92
2019-05-23T14:18:54.796Z,28.73
2019-05-23T14:21:28.330Z,28.97
2019-05-23T14:24:01.160Z,28.56
2019-05-23T14:26:36.330Z,28.56
2019-05-23T14:29:06.179Z,28.05
2019-05-23T14:31:42.848Z,28.21
2019-05-23T14:34:15.313Z,28.66
2019-05-23T14:37:14.781Z,28.70
2019-05-23T14:39:49.994Z,28.35
2019-05-23T14:42:39.722Z,28.59
2019-05-23T14:45:32.543Z,29.11
2019-05-23T14:48:13.610Z,29.11
2019-05-23T14:50:54.406Z,28.44
2019-05-23T14:53:25.869Z,28.44
2019-05-23T14:55:58.913Z,29.08
2019-05-23T14:58:31.360Z,28.72
2019-05-23T15:01:04.180Z,28.72
2019-05-23T15:03:39.406Z,28.81
2019-05-23T15:06:11.057Z,28.56
2019-05-23T15:08:50.857Z,28.46
2019-05-23T15:11:14.829Z,28.01
2019-05-23T15:13:46.860Z,28.28
2019-05-23T15:16:19.603Z,28.28
2019-05-23T15:18:51.222Z,28.76
2019-05-23T15:21:21.620Z,27.97
2019-05-23T15:23:53.361Z,28.08
2019-05-23T15:26:24.030Z,28.08
2019-05-23T15:28:55.289Z,28.66
2019-05-23T15:31:26.310Z,28.33
2019-05-23T15:33:58.973Z,28.33
2019-05-23T15:36:30.954Z,28.53
2019-05-23T15:39:09.652Z,28.59
2019-05-23T15:41:35.482Z,28.93
2019-05-23T15:44:24.461Z,29.20
2019-05-23T15:46:41.998Z,29.20
2019-05-23T15:49:13.305Z,29.17
2019-05-23T15:51:54.019Z,29.47
2019-05-23T15:54:48.354Z,29.47
2019-05-23T15:57:28.316Z,29.65
2019-05-23T16:01:30.096Z,29.72
2019-05-23T16:04:05.207Z,29.91
2019-05-23T16:06:37.402Z,29.86
2019-05-23T16:09:27.917Z,29.90
2019-05-23T16:11:45.272Z,29.94
2019-05-23T16:14:16.655Z,30.38
2019-05-23T16:16:48.981Z,30.38
2019-05-23T16:19:19.553Z,30.16
2019-05-23T16:21:50.477Z,30.17
2019-05-23T16:24:22.819Z,30.17
2019-05-23T16:26:54.280Z,30.27
2019-05-23T16:29:25.320Z,30.20
2019-05-23T16:31:57.631Z,30.33
2019-05-23T16:34:31.247Z,30.34
2019-05-23T16:37:02.440Z,30.56
2019-05-23T16:39:46.699Z,30.56
2019-05-23T16:42:08.615Z,30.79
2019-05-23T16:44:40.813Z,30.64
2019-05-23T16:47:11.342Z,30.65
2019-05-23T16:49:42.846Z,30.79
2019-05-23T16:52:13.428Z,30.79
2019-05-23T16:54:45.951Z,31.01
2019-05-23T16:57:34.005Z,31.01
2019-05-23T17:00:37.975Z,31.03
2019-05-23T17:03:25.284Z,31.23
2019-05-23T17:06:31.833Z,30.88
2019-05-23T17:09:21.185Z,30.88
2019-05-23T17:11:57.532Z,30.64
2019-05-23T17:14:45.684Z,30.64
2019-05-23T17:17:56.973Z,31.49
2019-05-23T17:20:19.453Z,31.16
2019-05-23T17:23:13.030Z,31.13
2019-05-23T17:25:53.067Z,30.94
2019-05-23T17:28:30.260Z,30.94
2019-05-23T17:31:06.476Z,31.15
2019-05-23T17:33:38.035Z,31.15
2019-05-23T17:36:10.312Z,31.17
2019-05-23T17:38:42.023Z,31.17
2019-05-23T17:41:12.905Z,31.20
2019-05-23T17:46:07.180Z,31.41
2019-05-23T17:48:39.027Z,32.37
2019-05-23T17:51:10.839Z,32.37
2019-05-23T17:53:41.783Z,31.76
2019-05-23T17:56:13.826Z,31.79
2019-05-23T17:58:45.706Z,31.92
2019-05-23T18:01:16.693Z,31.91
2019-05-23T18:03:48.657Z,31.97
2019-05-23T18:06:20.637Z,32.20
2019-05-23T18:08:52.435Z,32.20
2019-05-23T18:11:24.058Z,32.14
2019-05-23T18:13:54.577Z,32.24
2019-05-23T18:16:25.187Z,30.76
2019-05-23T18:18:55.840Z,29.89
2019-05-23T18:23:53.702Z,29.82
2019-05-23T18:26:24.668Z,29.82
2019-05-23T18:30:54.505Z,29.45
2019-05-23T18:33:24.755Z,29.67
2019-05-23T18:35:55.526Z,30.01
2019-05-23T18:38:24.949Z,30.24
2019-05-23T18:41:04.143Z,30.33
2019-05-23T18:43:26.628Z,30.34
2019-05-23T18:46:01.417Z,30.16
2019-05-23T18:48:31.153Z,30.16
2019-05-23T18:51:01.844Z,30.45
2019-05-23T18:53:33.931Z,30.45
2019-05-23T18:56:05.084Z,30.42
2019-05-23T18:58:35.999Z,30.95
2019-05-23T19:01:12.182Z,30.70
2019-05-23T19:03:42.108Z,30.70
2019-05-23T19:06:12.134Z,31.06
2019-05-23T19:08:41.386Z,31.14
2019-05-23T19:11:20.180Z,31.30
2019-05-23T19:13:42.201Z,31.63
2019-05-23T19:16:11.570Z,31.81
2019-05-23T19:18:41.641Z,31.89
2019-05-23T19:21:12.370Z,32.01
2019-05-23T19:23:42.014Z,32.08
2019-05-23T19:26:11.202Z,32.13
2019-05-23T19:28:41.044Z,32.29
2019-05-23T19:31:10.529Z,32.45
2019-05-23T19:33:40.054Z,32.55
2019-05-23T19:36:09.090Z,32.64
2019-05-23T19:38:37.848Z,32.68
2019-05-23T19:41:07.796Z,32.91
2019-05-23T19:43:36.682Z,32.88
2019-05-23T19:46:05.887Z,32.73
2019-05-23T19:48:36.681Z,32.56
2019-05-23T19:51:06.269Z,32.30
2019-05-23T19:53:35.810Z,32.30
2019-05-23T19:56:06.494Z,32.77
2019-05-23T19:58:36.233Z,33.94
2019-05-23T20:01:06.260Z,34.99
2019-05-23T20:03:35.720Z,35.33
2019-05-23T20:06:05.515Z,35.33
2019-05-23T20:08:33.632Z,35.30
2019-05-23T20:11:03.075Z,35.13
2019-05-23T20:13:31.318Z,35.21
2019-05-23T20:16:00.250Z,35.21
2019-05-23T20:18:28.527Z,35.23
2019-05-23T20:20:56.403Z,35.69
2019-05-23T20:23:24.045Z,35.69
2019-05-23T20:25:53.783Z,35.47
2019-05-23T20:28:23.611Z,35.54
2019-05-23T20:30:55.970Z,35.62
2019-05-23T20:33:25.099Z,35.74
2019-05-23T20:35:55.000Z,35.41
2019-05-23T20:38:24.689Z,35.41
2019-05-23T20:40:54.837Z,35.81
2019-05-23T20:43:26.068Z,35.88
2019-05-23T20:45:56.482Z,36.27
2019-05-23T20:48:29.133Z,36.03
2019-05-23T20:51:00.737Z,36.03
2019-05-23T20:53:32.943Z,36.46
2019-05-23T20:56:03.704Z,36.36
2019-05-23T20:58:34.575Z,36.36
2019-05-23T21:01:29.455Z,36.41
2019-05-23T21:04:01.840Z,36.33
2019-05-23T21:06:34.535Z,36.18
2019-05-23T21:09:07.799Z,36.31
2019-05-23T21:11:39.105Z,36.31
2019-05-23T21:14:10.324Z,36.25
2019-05-23T21:16:42.059Z,36.59
2019-05-23T21:19:13.368Z,37.10
2019-05-23T21:21:45.778Z,37.10
2019-05-23T21:24:17.211Z,36.53
2019-05-23T21:26:49.092Z,36.69
2019-05-23T21:29:19.507Z,36.59
2019-05-23T21:31:51.952Z,36.51
2019-05-23T21:34:22.904Z,36.34
2019-05-23T21:36:54.095Z,36.40
2019-05-23T21:39:25.613Z,36.71
2019-05-23T21:41:57.077Z,36.57
2019-05-23T21:44:28.558Z,36.57
2019-05-23T21:47:00.835Z,36.65
2019-05-23T21:49:32.114Z,36.64
2019-05-23T21:52:01.796Z,36.75
2019-05-23T21:54:31.743Z,37.05
2019-05-23T21:57:03.780Z,37.05
2019-05-23T21:59:35.274Z,37.18
2019-05-23T22:02:13.452Z,37.18
2019-05-23T22:05:09.992Z,37.18
2019-05-23T22:07:41.172Z,37.01
2019-05-23T22:10:12.349Z,37.10
2019-05-23T22:12:43.210Z,37.07
2019-05-23T22:15:25.942Z,37.07
2019-05-23T22:17:57.930Z,37.14
2019-05-23T22:20:28.747Z,37.13
2019-05-23T22:23:00.461Z,37.22
2019-05-23T22:27:09.768Z,37.47
2019-05-23T22:29:40.448Z,37.47
2019-05-23T22:32:12.939Z,37.38
2019-05-23T22:34:58.663Z,37.56
2019-05-23T22:37:30.263Z,37.28
2019-05-23T22:40:01.528Z,37.28
2019-05-23T22:42:34.605Z,37.47
2019-05-23T22:46:21.289Z,37.94
2019-05-23T22:48:50.339Z,37.54
2019-05-23T22:51:19.073Z,37.54
2019-05-23T22:54:52.415Z,37.59
2019-05-23T22:57:23.799Z,37.55
2019-05-23T22:59:53.482Z,37.60
2019-05-23T23:02:24.109Z,37.70
2019-05-23T23:04:55.803Z,37.77
2019-05-23T23:07:25.615Z,37.79
2019-05-23T23:10:56.198Z,37.68
2019-05-23T23:13:38.244Z,37.81
2019-05-23T23:15:57.235Z,37.86
2019-05-23T23:18:26.371Z,37.91
2019-05-23T23:20:55.537Z,37.89
2019-05-23T23:23:24.723Z,37.96
2019-05-23T23:25:54.204Z,38.14
2019-05-23T23:28:23.575Z,38.14
2019-05-23T23:30:53.388Z,38.10
2019-05-23T23:33:22.621Z,38.18
2019-05-23T23:35:51.761Z,38.12
2019-05-23T23:38:21.044Z,38.15
2019-05-23T23:40:50.506Z,38.17
2019-05-23T23:43:20.173Z,38.10
2019-05-23T23:46:07.665Z,38.10
2019-05-23T23:48:55.173Z,38.12
2019-05-23T23:51:42.872Z,38.25
2019-05-23T23:54:30.558Z,38.37
2019-05-23T23:58:55.160Z,37.98
